x

8413320 - Bar Harbor, Me (atgm1) Weather Station

3:54 - Mon 25th May 2015 All times are EDT. -4 hours from GMT.

  • Wind
    8mph, 13mph gusts
  • Sea Temp 45°f
  • Ar Temp 67°f
  • Sea Pressure 1019.7mb
  • 8413320 - Bar Harbor, Me
  • 8413320 - Bar Harbor, Me

More Historic Weather Station data

Upgrade to MSW Pro to gain access to the past 30 days of data for over 8000 Wavebouys and Weather Stations around the globe.

Join Pro

Comparision Forecast

View Surf forecast
   
Seg 05/25 3:54 8 13 mph 1019.7mb 45f 67f
3:48 8 13 mph 1019.7mb 45f 67f
3:42 6 8 mph 1019.6mb 45f 62f
3:36 5 8 mph 1019.6mb 45f 62f
3:30 3 5 mph 1019.6mb 45f 59f
3:24 2 3 mph 1019.4mb 45f 57f
3:18 2 3 mph 1019.4mb 45f 57f
3:12 1 3 mph 1019.4mb 45f 56f
3:06 3 5 mph 1019.5mb 45f 54f
3:00 3 6 mph 1019.5mb 45f 54f
2:54 2 5 mph 1019.5mb 45f 55f
2:48 1
mph
- 45f 54f
2:42  -  1 mph - 45f 54f
2:36  -  2 mph - 45f 53f
2:30  -  2 mph 1019.4mb 45f 52f
2:24  -  2 mph 1019.4mb 45f 52f
2:18 2 3 mph 1019.5mb 45f 52f
2:12 2 7 mph 1019.5mb 45f 52f
2:06 6 7 mph 1019.6mb 45f 51f
2:00 6 8 mph 1019.5mb 45f 51f
1:54 2 5 mph 1019.5mb 45f 51f
1:48 1 2 mph 1019.6mb 45f 51f
1:42  -  mph 1019.5mb 45f 50f
1:36 1 3 mph 1019.5mb 45f 50f
1:30 2 5 mph 1019.4mb 45f 50f
1:24 1 5 mph 1019.5mb 45f 51f
1:18 3 5 mph 1019.5mb 45f 52f
1:12 3 6 mph 1019.4mb 45f 54f
1:06 6
mph
1019.4mb 45f 52f
1:00 7 11 mph 1019.4mb 45f 59f
12:54 2 3 mph 1019.4mb 45f 61f
12:48 2 3 mph 1019.3mb 45f 61f
12:42 2 3 mph 1019.3mb 45f 60f
12:36 2
mph
1019.4mb 45f 64f
12:30  -  2 mph 1019.4mb 45f 63f
12:24  -  3 mph 1019.4mb 45f 64f
12:18 5 9 mph 1019.5mb 45f 65f
12:12 7 9 mph 1019.6mb 45f 65f
12:06 6 8 mph 1019.7mb 45f 65f
12:00 6 7 mph 1019.7mb 45f 65f
Dom 05/24 11:54 5 6 mph 1019.7mb 45f 64f
11:48 5 7 mph 1019.6mb 45f 64f
11:42 6 7 mph 1019.6mb 45f 64f
11:36 3 9 mph 1019.6mb 45f 64f
11:30 9 11 mph 1019.5mb 45f 64f
11:24 7 16 mph 1019.7mb 45f 63f
11:18 11 16 mph 1019.5mb 45f 63f
11:12 9 14 mph 1019.8mb 45f 64f
11:06 13 15 mph 1019.7mb 45f 65f
11:00 9 17 mph 1019.6mb 45f 63f
10:54 18 33 mph 1019.8mb 45f 60f
10:48 16 25 mph 1019.3mb 45f 68f
10:42 16 24 mph 1018.4mb 45f 68f
10:36 15 21 mph 1018.3mb 45f 68f
10:30 15 22 mph 1018.2mb 45f 69f
10:24 14 23 mph 1018.2mb 45f 69f
10:18 14 20 mph 1018mb 45f 69f
10:12 14 21 mph 1017.9mb 45f 70f
10:06 13 18 mph 1017.9mb 45f 70f
10:00 11 17 mph 1017.9mb 45f 70f
9:54 9 15 mph 1017.9mb 45f 71f
9:48 11 16 mph 1017.8mb 45f 71f
9:42 10 16 mph 1017.8mb 45f 71f
9:36 11 16 mph 1017.7mb 45f 72f
9:30 10 16 mph 1017.7mb 45f 71f
9:24 10 14 mph 1017.6mb 45f 71f
9:18 9 14 mph 1017.6mb 45f 72f
9:12 10 15 mph 1017.5mb 46f 72f
9:06 9 14 mph 1017.4mb 46f 72f
9:00 8 15 mph 1017.4mb 46f 72f
8:54 10 16 mph 1017.5mb 45f 71f
8:48 8 14 mph 1017.3mb 46f 71f
8:42 9 15 mph 1017.3mb 46f 71f
8:36 11 16 mph 1017.2mb 46f 71f
8:30 9 14 mph 1017.1mb 46f 71f
8:24 9 15 mph 1017.1mb 46f 71f
8:18 9 15 mph 1017.1mb 46f 71f
8:12 11 17 mph 1017.1mb 46f 71f
8:06 11 16 mph 1017mb 46f 71f
8:00 11 15 mph 1017mb 45f 71f
7:54 10 15 mph 1016.9mb 46f 71f
7:48 10 14 mph 1016.8mb 45f 71f
7:42 10 17 mph 1016.7mb 46f 71f
7:36 13 17 mph 1016.7mb 46f 71f
7:30 10 15 mph 1016.7mb 45f 71f
7:24 9 18 mph 1016.7mb 45f 71f
7:18 10 18 mph 1016.6mb 45f 71f
7:12 11 15 mph 1016.6mb 45f 71f
7:06 13 17 mph 1016.6mb 45f 71f
7:00 10 18 mph 1016.6mb 45f 71f
6:54 11 16 mph 1016.7mb 45f 72f
6:48 11 17 mph 1016.7mb 45f 72f
6:42 11 16 mph 1016.6mb 46f 72f
6:36 7 15 mph 1016.6mb 46f 73f
6:30 10 14 mph 1016.6mb 47f 73f
6:24 9 14 mph 1016.6mb 46f 74f
6:18 9 16 mph 1016.6mb 46f 74f
6:12 11 18 mph 1016.6mb 47f 73f
6:06 10 15 mph 1016.6mb 47f 73f
6:00 8 14 mph 1016.6mb 47f 73f
5:54 11 18 mph 1016.6mb 47f 73f
5:48 9 16 mph 1016.6mb 45f 73f
5:42 9 18 mph 1016.6mb 46f 74f
5:36 10 20 mph 1016.6mb 46f 74f
5:30 11 16 mph 1016.6mb 45f 73f
5:24 9 16 mph 1016.6mb 45f 74f
5:18 11 18 mph 1016.6mb 45f 73f
5:12 10 15 mph 1016.6mb 45f 73f
5:06 15 21 mph 1016.6mb 45f 73f
5:00 11 22 mph 1016.6mb 45f 73f
4:54 11 21 mph 1016.7mb 45f 74f
4:48 16 21 mph 1016.7mb 45f 73f
4:42 16 23 mph 1016.7mb 45f 73f
4:36 13 22 mph 1016.8mb 45f 73f
4:30 15 21 mph 1016.7mb 45f 74f
4:24 13 20 mph 1016.7mb 45f 74f
4:18 13 18 mph 1016.6mb 46f 74f
4:12 13 23 mph 1016.6mb 45f 74f
4:06 13 23 mph 1016.6mb 45f 74f
4:00 15 29 mph 1016.5mb 45f 74f
3:54 10 25 mph 1016.6mb 45f 74f
3:48 14 24 mph 1016.5mb 45f 73f
3:42 15 24 mph 1016.8mb 45f 73f
3:36 15 22 mph 1016.7mb 45f 73f
3:30 11 18 mph 1016.7mb 45f 73f
3:24 10 14 mph 1016.7mb 45f 73f
3:18 14 23 mph 1016.7mb 45f 73f
3:12 14 20 mph 1016.7mb 45f 74f
3:06 13 21 mph 1016.8mb 45f 73f
3:00 11 20 mph 1016.8mb 45f 73f
2:54 11 16 mph 1016.8mb 45f 74f
2:48 13 16 mph 1017mb 45f 73f
2:42 11 20 mph 1017mb 45f 73f
2:36 11 17 mph 1017mb 45f 73f
2:30 13 22 mph 1017.1mb 45f 73f
2:24 10 15 mph 1017mb 45f 73f
2:18 9 15 mph 1017.2mb 45f 73f
2:12 11 20 mph 1017.3mb 45f 72f
2:06 7 21 mph 1017.3mb 45f 73f
2:00 15 23 mph 1017.4mb 45f 72f
1:54 15 23 mph 1017.5mb 45f 72f
1:48 14 21 mph 1017.4mb 45f 72f
1:42 16 23 mph 1017.5mb 45f 72f
1:36 14 24 mph 1017.6mb 45f 72f
1:30 18 22 mph 1017.6mb 45f 72f
1:24 14 22 mph 1017.6mb 45f 71f
1:18 17 23 mph 1017.6mb 45f 71f
1:12 10 17 mph 1017.6mb 45f 72f
1:06 11 23 mph 1017.6mb 45f 71f
1:00 14 21 mph 1017.8mb 46f 70f
12:54 13 21 mph 1017.8mb 45f 71f
12:48 14 22 mph 1017.8mb 46f 70f
12:42 13 25 mph 1017.8mb 45f 70f
12:36 15 25 mph 1017.9mb 45f 69f
12:30 21 29 mph 1017.9mb 46f 69f
12:24 15 25 mph 1018mb 46f 69f
12:18 16 22 mph 1018.1mb 46f 69f
12:12 14 20 mph 1018.1mb 45f 69f
12:06 14 25 mph 1018.1mb 46f 69f
12:00 16 24 mph 1018mb 45f 68f
11:54 14 25 mph 1018.2mb 46f 68f
11:48 18 25 mph 1018.2mb 46f 67f
11:42 13 23 mph 1018.3mb 45f 68f
11:36 17 26 mph 1018.3mb 45f 67f
11:30 14 24 mph 1018.2mb 45f 67f
11:24 18 28 mph 1018.1mb 45f 67f
11:18 18 28 mph 1018.1mb 45f 66f
11:12 17 25 mph 1018.3mb 45f 66f
11:06 14 21 mph 1018.5mb 45f 66f
11:00 16 23 mph 1018.6mb 45f 66f
10:54 10 21 mph 1018.7mb 45f 66f
10:48 10 18 mph 1018.8mb 45f 66f
10:42 16 22 mph 1018.8mb 45f 66f
10:36 16 24 mph 1018.9mb 45f 65f
10:30 18 26 mph 1019mb 45f 64f
10:24 14 18 mph 1019mb 45f 64f
10:18 10 16 mph 1018.8mb 45f 64f
10:12 9 16 mph 1018.8mb 45f 63f
10:06 11 16 mph 1018.8mb 45f 63f
10:00 14 22 mph 1018.8mb 45f 63f
9:54 14 28 mph 1018.9mb 45f 62f
9:48 15 22 mph 1019mb 45f 62f
9:42 14 20 mph 1019mb 45f 61f
9:36 14 22 mph 1019mb 45f 60f
9:30 16 22 mph 1019mb 45f 60f
9:24 16 23 mph 1019mb 45f 59f
9:18 13 25 mph 1019mb 45f 59f
9:12 16 24 mph 1019mb 45f 58f
9:06 13 22 mph 1019mb 45f 57f
9:00 14 24 mph 1019mb 45f 56f
8:54 14 22 mph 1019.1mb 45f 55f
8:48 10 22 mph 1019mb 45f 55f
8:42 18 24 mph 1018.9mb 45f 54f
8:36 18 28 mph 1018.8mb 45f 54f
8:30 18 25 mph 1018.9mb 45f 54f
8:24 16 24 mph 1018.8mb 45f 54f
8:18 16 26 mph 1018.8mb 45f 54f
8:12 15 23 mph 1018.8mb 45f 53f
8:06 16 25 mph 1018.7mb 45f 53f
8:00 16 26 mph 1018.8mb 45f 52f
7:54 14 25 mph 1019mb 45f 52f
7:48 17 26 mph 1019mb 45f 53f
7:42 16 25 mph 1018.9mb 45f 53f
7:36 15 24 mph 1018.9mb 45f 53f
7:30 14 23 mph 1018.9mb 45f 53f
7:24 15 24 mph 1018.8mb 45f 53f
7:18 17 25 mph 1018.8mb 45f 54f
7:12 14 22 mph 1018.7mb 45f 54f
7:06 15 22 mph 1018.7mb 45f 54f
7:00 14 23 mph 1018.7mb 45f 54f
6:54 16 25 mph 1018.8mb 46f 54f
6:48 13 26 mph 1018.8mb 45f 54f
6:42 14 24 mph 1018.8mb 45f 54f
6:36 15 25 mph 1018.8mb 45f 54f
6:30 14 25 mph 1018.9mb 46f 54f
6:24 14 22 mph 1019mb 46f 54f
6:18 13 20 mph 1019mb 46f 54f
6:12 14 20 mph 1019mb 46f 54f
6:06 13 22 mph 1019mb 46f 54f
6:00 14 20 mph 1018.9mb 46f 54f
5:54 15 22 mph 1018.9mb 46f 54f
5:48 14 22 mph 1018.9mb 46f 54f
5:42 14 24 mph 1018.9mb 46f 54f
5:36 15 24 mph 1019mb 46f 54f
5:30 14 20 mph 1019mb 46f 54f
5:24 14 20 mph 1019.1mb 46f 54f
5:18 14 20 mph 1019.1mb 46f 54f
5:12 14 20 mph 1019.1mb 46f 54f
5:06 13 18 mph 1019.1mb 46f 54f
5:00 13 21 mph 1019.1mb 46f 54f
4:54 15 20 mph 1019.1mb 46f 54f
4:48 11 20 mph 1019.2mb 46f 54f
4:42 10 18 mph 1019.2mb 46f 54f
4:36 10 18 mph 1019.4mb 46f 54f
4:30 11 17 mph 1019.5mb 46f 54f
4:24 14 21 mph 1019.6mb 46f 54f
4:18 10 17 mph 1019.6mb 46f 54f
4:12 13 17 mph 1019.6mb 45f 54f
4:06 10 16 mph 1019.5mb 45f 54f
4:00 11 17 mph 1019.4mb 45f 54f
3:54 10 18 mph 1019.6mb 45f 54f
3:48 10 17 mph 1019.6mb 45f 54f
3:42 13 16 mph 1019.7mb 45f 54f
3:36 11 17 mph 1019.9mb 45f 54f
3:30 10 16 mph 1019.9mb 45f 55f
3:24 8 20 mph 1019.9mb 45f 54f
3:18 10 17 mph 1019.8mb 45f 54f
3:12 10 15 mph 1020mb 45f 54f
3:06 11 15 mph 1020mb 45f 54f
3:00 11 20 mph 1020.2mb 45f 54f
2:54 9 16 mph 1020.2mb 45f 54f
2:48 7 13 mph 1020.3mb 45f 54f
2:42 8 15 mph 1020.3mb 45f 54f
2:36 7 13 mph 1020.5mb 45f 55f
2:30 7 13 mph 1020.7mb 45f 55f
2:24 8 14 mph 1020.8mb 45f 55f
2:18 9 15 mph 1020.8mb 45f 55f
2:12 9 18 mph 1020.9mb 45f 55f
2:06 9 15 mph 1021mb 45f 55f
2:00 6 11 mph - 45f 54f
1:54 7 10 mph - 45f 54f
1:48 6 10 mph 1021.2mb 45f 53f
1:42 8 14 mph 1021.3mb 45f 53f
1:36 6 10 mph 1021.4mb 45f 53f
1:30 3 7 mph 1021.4mb 45f 52f
1:24 3 8 mph 1021.4mb 45f 53f
1:18 8 14 mph 1021.4mb 45f 53f
1:12 7 11 mph 1021.5mb 45f 53f
1:06 6 9 mph 1021.5mb 45f 53f
1:00 5 9 mph 1021.5mb 45f 52f
12:54 6 8 mph 1021.6mb 45f 52f
12:48  -  1 mph 1021.7mb 45f 47f
12:42  -  2 mph 1021.6mb 45f 47f
12:36  -  1 mph 1021.6mb 45f 48f
12:30  -  mph 1021.7mb 45f 47f
12:24  -  1 mph 1021.7mb 45f 47f
12:18  -  1 mph 1021.8mb 45f 48f
12:12  -  2 mph 1021.8mb 46f 49f
12:06 1 5 mph 1021.9mb 46f 49f
12:00 5 6 mph 1021.9mb 46f 50f
Sáb 05/23 11:54  -  3 mph 1021.9mb 46f 51f
11:48 3 6 mph 1021.9mb 46f 53f
11:42 5 6 mph 1022mb 46f 53f
11:36 5 8 mph 1022mb 46f 53f
11:30 6 7 mph 1022mb 46f 53f
11:24 6 9 mph 1022.1mb 46f 53f
11:18 6 7 mph 1022.1mb 46f 53f
11:12 6 8 mph 1022.1mb 46f 53f
11:06 7 9 mph 1022.3mb 46f 52f
11:00 6 8 mph 1022.4mb 46f 53f
10:54 6 8 mph 1022.4mb 46f 52f
10:48 5 7 mph 1022.4mb 46f 52f
10:42 3 5 mph 1022.3mb 46f 51f
10:36 5 8 mph 1022.4mb 46f 52f
10:30 6 8 mph 1022.3mb 46f 53f
10:24 5 7 mph 1022.4mb 46f 52f
10:18 6 7 mph 1022.4mb 46f 52f
10:12 6 8 mph 1022.3mb 46f 53f
10:06 7 9 mph 1022.3mb 46f 52f
10:00 7 9 mph 1022.4mb 46f 53f
9:54 8 11 mph 1022.4mb 46f 53f
9:48 8 10 mph 1022.4mb 46f 52f
9:42 8 10 mph 1022.5mb 46f 52f
9:36 7 10 mph 1022.4mb 46f 51f
9:30 9 11 mph 1022.3mb 46f 51f
9:24 8 11 mph 1022.3mb 46f 52f
9:18 9 13 mph 1022.3mb 46f 52f
9:12 8 11 mph 1022.2mb 46f 52f
9:06 7 11 mph 1022.1mb 46f 53f
9:00 8 11 mph 1022mb 46f 53f
8:54 9 13 mph 1021.8mb 46f 52f
8:48 8 10 mph 1021.7mb 46f 52f
8:42 8 13 mph 1021.7mb 46f 52f
8:36 8 11 mph 1021.7mb 46f 52f
8:30 10 13 mph 1021.7mb 46f 52f
8:24 8 11 mph 1021.6mb 46f 52f
8:18 7 9 mph 1021.6mb 46f 52f
8:12 8 10 mph 1021.6mb 46f 52f
8:06 8 9 mph 1021.5mb 46f 53f
8:00 5 7 mph 1021.5mb 46f 53f
7:54 7 10 mph 1021.4mb 46f 55f
7:48 7 9 mph 1021.3mb 46f 56f
7:42 7 10 mph 1021.2mb 46f 56f
7:36 6 9 mph 1021.1mb 46f 56f
7:30 6 7 mph 1021.1mb 46f 56f
7:24 6 8 mph 1021.1mb 46f 57f
7:18 6 7 mph 1021mb 46f 57f
7:12 5 7 mph 1021mb 46f 57f
7:06 6 7 mph 1021mb 46f 57f
7:00 5 7 mph 1021.1mb 46f 57f
6:54 6 8 mph 1021.1mb 46f 57f
6:48 8 10 mph 1021.1mb 46f 57f
6:42 9 15 mph 1021.2mb 46f 56f
6:36 11 16 mph 1021.2mb 46f 57f
6:30 11 16 mph 1021.1mb 46f 57f
6:24 13 17 mph 1021mb 46f 56f
6:18 16 25 mph 1021mb 46f 56f
6:12 16 22 mph 1021mb 46f 57f
6:06 20 22 mph 1020.9mb 46f 56f
6:00 17 25 mph 1020.9mb 46f 56f
5:54 21 25 mph 1021mb 46f 56f
5:48 18 21 mph 1020.9mb 46f 56f
5:42 17 21 mph 1021mb 46f 55f
5:36 18 24 mph 1021.1mb 46f 56f
5:30 20 25 mph 1021.1mb 46f 55f
5:24 17 23 mph 1021.1mb 46f 55f
5:18 21 30 mph 1021.1mb 46f 55f
5:12 16 25 mph 1021.1mb 46f 55f
5:06 17 24 mph 1021.1mb 46f 55f
5:00 20 28 mph 1021.1mb 46f 55f
4:54 24 29 mph 1021.1mb 46f 55f
4:48 22 26 mph 1021.1mb 46f 55f
4:42 22 29 mph 1021.1mb 46f 55f
4:36 22 29 mph 1021.2mb 46f 54f
4:30 17 30 mph 1021.2mb 46f 55f
4:24 24 31 mph 1021.2mb 46f 55f
4:18 26 32 mph 1021.3mb 46f 54f
4:12 22 31 mph 1021.3mb 46f 54f
4:06 22 32 mph 1021.4mb 46f 54f
4:00 24 31 mph 1021.3mb 46f 54f
3:54 20 26 mph 1021.2mb 46f 54f
3:48 21 29 mph 1021.2mb 46f 53f
3:42 22 30 mph 1021.1mb 46f 54f
3:36 25 33 mph 1021.1mb 47f 53f
3:30 18 24 mph 1021.1mb 47f 53f
3:24 21 30 mph 1021.2mb 47f 52f
3:18 22 31 mph 1021.1mb 47f 53f
3:12 18 29 mph 1021mb 47f 53f
3:06 21 34 mph 1021mb 47f 53f
3:00 26 30 mph 1021.1mb 47f 52f
2:54 25 32 mph 1021.1mb 46f 52f
2:48 22 29 mph 1021.1mb 46f 52f
2:42 18 30 mph 1021mb 46f 52f
2:36 21 33 mph 1020.8mb 46f 53f
2:30 23 32 mph 1020.9mb 46f 52f
2:24 17 23 mph 1021mb 47f 51f
2:18 18 26 mph 1021mb 47f 51f
2:12 14 22 mph 1020.8mb 47f 52f
2:06 16 26 mph 1020.8mb 46f 52f
2:00 20 25 mph 1020.8mb 46f 51f
1:54 21 30 mph 1020.8mb 45f 50f
1:48 22 31 mph 1020.7mb 45f 51f
1:42 24 29 mph 1020.8mb 45f 50f
1:36 25 29 mph 1020.7mb 45f 50f
1:30 24 28 mph 1020.7mb 45f 50f
1:24 20 28 mph 1020.6mb 45f 50f
1:18 22 29 mph 1020.6mb 45f 50f
1:12 17 25 mph 1020.7mb 45f 49f
1:06 21 25 mph 1020.6mb 45f 49f
1:00 21 25 mph 1020.6mb 45f 49f
12:54 23 26 mph 1020.6mb 45f 49f
12:48 18 23 mph 1020.5mb 45f 49f
12:42 16 22 mph 1020.4mb 45f 49f
12:36 20 25 mph 1020.5mb 45f 49f
12:30 17 26 mph 1020.4mb 45f 48f
12:24 20 24 mph 1020.4mb 45f 48f
12:18 20 29 mph 1020.4mb 45f 48f
12:12 21 26 mph 1020.4mb 45f 48f
12:06 18 28 mph 1020.3mb 45f 47f
12:00 22 28 mph 1020.3mb 45f 47f
11:54 18 28 mph 1020.2mb 45f 47f
11:48 25 33 mph 1020.3mb 45f 47f
11:42 22 30 mph 1020.3mb 45f 47f
11:36 20 30 mph 1020.2mb 45f 47f
11:30 24 30 mph 1020.1mb 45f 47f
11:24 22 28 mph 1020.2mb 45f 46f
11:18 24 30 mph 1020.3mb 45f 46f
11:12 24 37 mph 1020.3mb 45f 46f
11:06 28 31 mph 1020.2mb 45f 46f
11:00 28 32 mph 1020.1mb 45f 46f
10:54 28 31 mph 1020.2mb 45f 46f
10:48 29 37 mph 1020.1mb 45f 46f
10:42 26 32 mph 1020.1mb 45f 45f
10:36 26 31 mph 1020mb 45f 45f
10:30 25 33 mph 1020mb 45f 46f
10:24 29 34 mph 1019.9mb 45f 45f
10:18 29 36 mph 1019.8mb 45f 45f
10:12 26 32 mph 1019.8mb 45f 45f
10:06 18 30 mph 1019.6mb 45f 45f
10:00 18 28 mph 1019.6mb 45f 44f
9:54 20 31 mph 1019.6mb 45f 44f
9:48 24 32 mph 1019.6mb 45f 44f
9:42 28 33 mph 1019.7mb 45f 44f
9:36 26 33 mph 1019.6mb 45f 44f
9:30 25 39 mph 1019.5mb 45f 44f
9:24 28 38 mph 1019.5mb 45f 44f
9:18 26 32 mph 1019.6mb 45f 43f
9:12 22 29 mph 1019.5mb 45f 43f
9:06 17 26 mph 1019.5mb 45f 44f
9:00 23 33 mph 1019.4mb 45f 43f
8:54 28 33 mph 1019.3mb 45f 43f
8:48 23 30 mph 1019.3mb 45f 43f
8:42 23 34 mph 1019.2mb 45f 43f
8:36 24 33 mph 1019.2mb 45f 43f
8:30 29 37 mph 1019.1mb 45f 43f
8:24 29 39 mph 1019mb 45f 43f
8:18 22 31 mph 1018.9mb 45f 43f
8:12 18 28 mph 1018.8mb 45f 43f
8:06 23 32 mph 1019mb 45f 42f
8:00 21 29 mph 1018.9mb 45f 42f
7:54 24 30 mph 1018.9mb 45f 42f
7:48 21 24 mph 1018.9mb 45f 42f
7:42 17 26 mph 1018.9mb 45f 42f
7:36 18 29 mph 1018.8mb 45f 42f
7:30 18 23 mph 1018.8mb 45f 42f
7:24 21 28 mph 1018.8mb 45f 42f
7:18 20 24 mph 1018.8mb 45f 42f
7:12 22 31 mph 1018.7mb 45f 41f
7:06 21 29 mph 1018.7mb 45f 41f
7:00 15 25 mph 1018.7mb 45f 41f
6:54 22 30 mph 1018.6mb 45f 41f
6:48 21 30 mph 1018.5mb 45f 41f
6:42 18 25 mph 1018.4mb 45f 41f
6:36 21 26 mph 1018.4mb 45f 40f
6:30 20 26 mph 1018.3mb 45f 40f
6:24 20 24 mph 1018.2mb 45f 40f
6:18 20 23 mph 1018.2mb 45f 40f
6:12 21 28 mph 1018.1mb 45f 40f
6:06 22 30 mph 1018mb 45f 40f
6:00 21 29 mph 1017.8mb 45f 40f
5:54 23 30 mph 1017.7mb 45f 40f
5:48 22 31 mph 1017.6mb 45f 40f
5:42 24 29 mph 1017.5mb 45f 40f
5:36 20 23 mph 1017.5mb 45f 40f
5:30 22 26 mph 1017.5mb 45f 40f
5:24 22 26 mph 1017.4mb 45f 40f
5:18 21 29 mph 1017.3mb 45f 41f
5:12 23 29 mph 1017.2mb 45f 41f
5:06 23 29 mph 1017.2mb 45f 41f
5:00 22 28 mph 1017.1mb 45f 41f
4:54 23 29 mph 1017mb 45f 42f
4:48 22 30 mph 1016.8mb 45f 42f
4:42 21 26 mph 1016.7mb 45f 42f
4:36 20 22 mph 1016.7mb 45f 42f
4:30 20 24 mph 1016.6mb 45f 43f
4:24 20 26 mph 1016.5mb 45f 43f
4:18 23 30 mph 1016.5mb 45f 43f
4:12 24 30 mph 1016.3mb 45f 44f
4:06 20 28 mph 1016.3mb 45f 44f
4:00 24 30 mph 1016.1mb 45f 44f
3:54 20 24 mph 1016.2mb 45f 44f
3:48 15 18 mph 1016.1mb 45f 44f
3:42 14 17 mph 1016mb 45f 44f
3:36 11 18 mph 1015.9mb 45f 44f
3:30 10 15 mph 1015.8mb 45f 44f
3:24 13 18 mph 1015.7mb 45f 44f
3:18 11 17 mph 1015.8mb 45f 44f
3:12 13 18 mph 1015.7mb 45f 44f
3:06 14 21 mph 1015.4mb 45f 44f
3:00 14 18 mph 1015.2mb 45f 44f
2:54 14 16 mph 1015.1mb 45f 44f
2:48 11 16 mph - 45f 44f
2:42 11 16 mph - 45f 44f
2:36 11 16 mph - 45f 44f
2:30 10 17 mph 1015.1mb 45f 45f
2:24 11 16 mph 1014.9mb 45f 45f
2:18 10 17 mph 1014.9mb 45f 45f
2:12 13 18 mph 1014.9mb 44f 45f
2:06 13 20 mph 1014.8mb 44f 45f
2:00 11 15 mph 1014.7mb 44f 45f
1:54 10 14 mph 1014.6mb 44f 44f
1:48 11 16 mph 1014.6mb 44f 45f
1:42 14 17 mph 1014.6mb 44f 45f
1:36 14 17 mph 1014.5mb 44f 45f
1:30 14 18 mph 1014.5mb 44f 45f
1:24 13 18 mph 1014.5mb 44f 46f
1:18 10 15 mph 1014.6mb 44f 46f
1:12 8 14 mph 1014.5mb 44f 46f
1:06 8 14 mph 1014.5mb 44f 46f
1:00 8 14 mph 1014.5mb 44f 46f
12:54 7 13 mph 1014.4mb 44f 46f
12:48 7 10 mph 1014.4mb 44f 46f
12:42 8 11 mph 1014.3mb 44f 46f
12:36 9 10 mph 1014.2mb 45f 46f
12:30 8 10 mph 1014.3mb 45f 46f
12:24 6 10 mph 1014.4mb 45f 46f
12:18 6 7 mph 1014.4mb 45f 46f
12:12 2 5 mph 1014.4mb 45f 45f
12:06 5 6 mph 1014.4mb 45f 45f
12:00 5 8 mph 1014.4mb 45f 46f
Sex 05/22 11:54 5 7 mph 1014.3mb 45f 47f
11:48 6 7 mph 1014.2mb 45f 47f
11:42 2
mph
1014.2mb 45f 46f
11:36 1 2 mph 1014mb 45f 47f
11:30 2 5 mph 1014mb 45f 47f
11:24 3 6 mph 1014.1mb 45f 47f
11:18 3 6 mph 1014.1mb 45f 48f
11:12 5 7 mph 1014.1mb 45f 48f
11:06 5 7 mph 1014.1mb 45f 48f
11:00 6 11 mph 1014.2mb 45f 48f
10:54 8 11 mph 1014.1mb 45f 49f
10:48 9 14 mph 1014mb 45f 49f
10:42 9 14 mph 1014mb 45f 50f
10:36 8 14 mph 1013.9mb 45f 50f
10:30 10 20 mph 1013.9mb 45f 50f
10:24 11 15 mph 1013.8mb 46f 50f
10:18 9 14 mph 1013.7mb 46f 50f
10:12 7 11 mph 1013.6mb 46f 50f
10:06 8 10 mph 1013.7mb 46f 50f
10:00 8 13 mph 1013.6mb 46f 51f
9:54 9 14 mph 1013.5mb 46f 51f
9:48 7 15 mph 1013.4mb 46f 51f
9:42 10 13 mph 1013.3mb 46f 51f
9:36 10 15 mph 1013.3mb 46f 51f
9:30 8 14 mph 1013.2mb 46f 51f
9:24 8 14 mph 1013.2mb 46f 51f
9:18 9 15 mph 1013.1mb 45f 51f
9:12 8 14 mph 1012.9mb 45f 51f
9:06 9 16 mph 1012.9mb 46f 50f
9:00 9 15 mph 1012.7mb 46f 51f
8:54 8 14 mph 1012.6mb 46f 50f
8:48 6 9 mph 1012.5mb 46f 50f
8:42 7 8 mph 1012.5mb 46f 49f
8:36 7 8 mph 1012.4mb 46f 49f
8:30 6 7 mph 1012.2mb 46f 48f
8:24 7 9 mph 1012.1mb 46f 48f
8:18 7 9 mph 1012.1mb 46f 47f
8:12 5 7 mph 1012mb 46f 47f
8:06 3 5 mph 1011.8mb 46f 47f
8:00  -  1 mph 1011.7mb 46f 47f
7:54  -  1 mph 1011.6mb 46f 47f
7:48  -  3 mph 1011.5mb 46f 47f
7:42 2 3 mph 1011.4mb 46f 46f
7:36 3 5 mph 1011.4mb 46f 46f
7:30 3 6 mph 1011.3mb 46f 47f
7:24 6 7 mph 1011.3mb 46f 46f
7:18 7 8 mph 1011.2mb 46f 47f
7:12 5 6 mph 1011.1mb 46f 47f
7:06 5
mph
1011mb 46f 47f
7:00 3
mph
1011mb 46f 47f
6:54  -  1 mph 1011mb 46f 48f
6:48  -  1 mph 1011mb 46f 48f
6:42  -  2 mph 1011mb 46f 48f
6:36 2 3 mph 1010.8mb 46f 49f
6:30 2 6 mph 1010.6mb 46f 48f
6:24 6 7 mph 1010.3mb 46f 47f
6:18 5 8 mph 1010.2mb 46f 48f
6:12 6 7 mph 1010.1mb 46f 48f
6:06  -  5 mph 1010.3mb 46f 50f
6:00 2 5 mph 1010.2mb 46f 50f
5:54 3 6 mph 1010.1mb 46f 50f
5:48 1 6 mph 1010.4mb 46f 50f
5:42 6 7 mph 1010.6mb 46f 50f
5:36 6 11 mph 1010.5mb 46f 50f
5:30 6 8 mph 1010.4mb 46f 50f
5:24 7 10 mph 1010.2mb 46f 50f
5:18 9 13 mph 1010.2mb 46f 51f
5:12 8 11 mph 1009.9mb 46f 51f
5:06 6 10 mph 1010mb 46f 51f
5:00 9 11 mph 1009.6mb 46f 50f
4:54 8 9 mph 1009.2mb 46f 49f
4:48 3 10 mph 1008.9mb 46f 50f
4:42 8 10 mph 1008.6mb 46f 50f
4:36 6 9 mph 1008.5mb 46f 50f
4:30 9 11 mph 1008.4mb 46f 49f
4:24 3 7 mph 1008.4mb 46f 53f
4:18 5 9 mph 1008.5mb 46f 52f
4:12 3 11 mph 1008.6mb 46f 52f
4:06 6 11 mph 1008.7mb 46f 52f
4:00 10 14 mph 1009mb 46f 52f
3:54 9 13 mph 1009.2mb 46f 52f
3:48 8 11 mph 1009.3mb 46f 53f
3:42 3 8 mph 1009.1mb 46f 51f
3:36 3 8 mph 1008.8mb 46f 49f
3:30 6 14 mph 1008.6mb 46f 49f
3:24 8 16 mph 1008.4mb 46f 49f
3:18 6 14 mph 1008.3mb 46f 50f
3:12 9 17 mph 1008.3mb 46f 50f
3:06 14 17 mph 1008.1mb 46f 50f
3:00 11 18 mph 1007.9mb 46f 49f
2:54 11 14 mph 1008mb 46f 51f
2:48 3 8 mph 1008mb 46f 52f
2:42 10 14 mph 1008mb 46f 51f
2:36 9 15 mph 1008mb 46f 52f
2:30 7 14 mph 1008mb 46f 52f
2:24 11 16 mph 1007.9mb 46f 50f
2:18 14 16 mph 1008mb 46f 49f
2:12 11 16 mph 1008.1mb 46f 47f
2:06 15 18 mph 1008.3mb 46f 46f
2:00 16 17 mph 1008.4mb 46f 46f
1:54 15 17 mph 1008.4mb 46f 47f
1:48 14 17 mph 1008.4mb 45f 48f
1:42 15 18 mph 1008.6mb 45f 47f
1:36 15 17 mph 1008.8mb 45f 46f
1:30 15 17 mph 1008.9mb 45f 46f
1:24 16 17 mph 1008.9mb 45f 47f
1:18 14 17 mph 1008.9mb 45f 47f
1:12 15 18 mph 1008.7mb 45f 47f
1:06 15 17 mph 1008.7mb 45f 46f
1:00 16 17 mph 1008.9mb 45f 46f
12:54 14 16 mph 1009mb 45f 46f
12:48 13 15 mph 1009.1mb 45f 46f
12:42 10 13 mph 1009.2mb 45f 46f
12:36 9 10 mph 1009.2mb 45f 45f
12:30 8 9 mph 1009.3mb 45f 46f
12:24 9 11 mph 1009.4mb 45f 46f
12:18 8 10 mph 1009.5mb 45f 45f
12:12 8 11 mph 1009.5mb 45f 45f
12:06 9 11 mph 1009.5mb 45f 45f
12:00 10 13 mph 1009.6mb 45f 45f
11:54 10 14 mph 1009.7mb 45f 45f
11:48 13 15 mph 1009.7mb 45f 46f
11:42 14 17 mph 1009.7mb 45f 46f
11:36 14 17 mph 1009.7mb 45f 46f
11:30 13 15 mph 1009.7mb 45f 46f
11:24 8 13 mph 1009.8mb 45f 47f
11:18 7 10 mph 1009.8mb 45f 47f
11:12 6 9 mph 1009.9mb 45f 48f
11:06 6 11 mph 1010mb 45f 48f
11:00 2 9 mph 1010mb 45f 49f
10:54 8 11 mph 1009.9mb 45f 49f
10:48 6 9 mph 1010mb 45f 49f
10:42 5 10 mph 1010.1mb 45f 49f
10:36 5 14 mph 1010.2mb 45f 49f
10:30 7 13 mph 1010.1mb 45f 49f
10:24 8 14 mph 1010.1mb 45f 49f
10:18 8 16 mph 1010mb 45f 49f
10:12 7 11 mph 1010mb 45f 49f
10:06 7 11 mph 1010.2mb 45f 48f
10:00 6 11 mph 1010.2mb 45f 48f
9:54 8 11 mph 1010.2mb 45f 48f
9:48 6 10 mph 1010.4mb 45f 48f
9:42 5 9 mph 1010.5mb 45f 48f
9:36 6 9 mph 1010.5mb 45f 48f
9:30 7 10 mph 1010.4mb 45f 48f
9:24 6 10 mph 1010.4mb 45f 47f
9:18 7 18 mph 1010.2mb 45f 47f
9:12 10 15 mph 1010.4mb 45f 47f
9:06 11 17 mph 1010.4mb 45f 47f
9:00 11 17 mph 1010.5mb 45f 47f
8:54 10 18 mph 1010.4mb 45f 47f
8:48 14 22 mph 1010.3mb 45f 47f
8:42 6 15 mph 1010.4mb 45f 48f
8:36 10 16 mph 1010.4mb 45f 48f
8:30 7 13 mph 1010.4mb 45f 48f
8:24 7 13 mph 1010.3mb 45f 49f
8:18 8 13 mph 1010.2mb 45f 49f
8:12 7 15 mph 1010.2mb 45f 49f
8:06 5 16 mph 1010.2mb 46f 49f
8:00 5 15 mph 1010.2mb 46f 49f
7:54 8 15 mph 1009.9mb 45f 49f
7:48 2 16 mph 1009.8mb 45f 50f
7:42 9 15 mph 1009.8mb 45f 50f
7:36 8 16 mph 1009.9mb 46f 50f
7:30 8 21 mph 1009.9mb 46f 50f
7:24 9 18 mph 1009.9mb 46f 50f
7:18 6 17 mph 1009.8mb 46f 50f
7:12 7 22 mph 1010mb 46f 51f
7:06 10 17 mph 1009.9mb 46f 51f
7:00 8 15 mph 1009.6mb 46f 51f
6:54 10 20 mph 1009.3mb 46f 51f
6:48 8 22 mph 1009.3mb 46f 50f
6:42 13 25 mph 1009.4mb 45f 50f
6:36 8 26 mph 1009.5mb 45f 50f
6:30 10 22 mph 1009.3mb 45f 50f
6:24 11 21 mph 1009.3mb 45f 50f
6:18 11 20 mph 1009.4mb 45f 50f
6:12 10 16 mph 1009.4mb 45f 51f
6:06 9 21 mph 1009.4mb 45f 51f
6:00 11 17 mph 1009.4mb 45f 50f
5:54 10 17 mph 1009.6mb 45f 51f
5:48 14 20 mph 1009.8mb 45f 51f
5:42 3 6 mph 1009.9mb 45f 50f
5:36 5 6 mph 1009.8mb 45f 50f
5:30 2 9 mph 1009.7mb 45f 50f
5:24 6 10 mph 1009.9mb 45f 50f
5:18 7 11 mph 1009.7mb 45f 51f
5:12 5 9 mph 1009.6mb 45f 51f
5:06  -  6 mph 1009.3mb 45f 50f
5:00 2 6 mph 1009.3mb 45f 50f
4:54 5 10 mph 1009.2mb 45f 50f
4:48 3 7 mph 1009.1mb 45f 50f
4:42 2 5 mph 1009.1mb 45f 50f
4:36 2 9 mph 1009.3mb 45f 49f
4:30 5 9 mph 1009.5mb 45f 49f
4:24 6 11 mph 1009.5mb 45f 50f
4:18 8 10 mph 1009.2mb 45f 50f
4:12 8 13 mph 1009.2mb 45f 50f
4:06 7 10 mph 1009.3mb 45f 50f
4:00 6 10 mph 1009.1mb 45f 50f
3:54 3 6 mph 1009.1mb 45f 50f
3:48 6 8 mph 1009.1mb 45f 50f
3:42 6 10 mph 1009.1mb 45f 50f
3:36 6 9 mph 1009.3mb 45f 50f
3:30 5 7 mph 1009.2mb 45f 50f
3:24 3 6 mph 1009.2mb 45f 51f
3:18 2 5 mph 1009.4mb 45f 51f
3:12 5 6 mph 1009.5mb 45f 50f
3:06 2 6 mph 1009.5mb 45f 52f
3:00 3 7 mph 1009.5mb 45f -
2:54 6 10 mph 1009.6mb 45f -
2:48 7 10 mph 1009.7mb 45f 51f
2:42 6 7 mph 1009.7mb 45f 51f
2:36 2 3 mph 1009.7mb 45f 50f
2:30  -  3 mph 1009.7mb 45f 50f
2:24 5 9 mph 1009.8mb 45f 50f
2:18 7 10 mph 1009.9mb 45f 49f
2:12 6 8 mph 1009.9mb 45f 50f
2:06 5 6 mph 1009.9mb 45f 51f
2:00  -  mph 1010mb 45f 51f
1:54  -  mph 1010mb 45f 51f
1:48  -  3 mph 1010.2mb 45f 51f
1:42 3 6 mph 1010.2mb 44f 51f
1:36 5 6 mph 1010.2mb 44f 51f
1:30 5 7 mph 1010.4mb 44f 51f
1:24 5 7 mph 1010.6mb 44f 51f
1:18 7 8 mph 1010.7mb 44f 51f
1:12 3 6 mph 1010.7mb 44f 51f
1:06 2 3 mph 1010.8mb 44f 51f
1:00 2 3 mph 1010.8mb 44f 51f
12:54 2 6 mph 1011mb 44f 50f
12:48 3 6 mph 1011.1mb 44f 50f
12:42 1 3 mph 1011.1mb 44f 51f
12:36  -  2 mph 1011.1mb 44f 50f
12:30 5 6 mph 1011.2mb 44f 50f
12:24 2 8 mph 1011.2mb 44f 50f
12:18 7 10 mph 1011.3mb 44f 49f
12:12 6 9 mph 1011.3mb 44f 49f
12:06 8 9 mph 1011.3mb 44f 50f
12:00 6 10 mph 1011.5mb 44f 51f
Qui 05/21 11:54 7 11 mph 1011.5mb 44f 50f
11:48 7 10 mph 1011.6mb 44f 50f
11:42 5 10 mph 1011.6mb 44f 52f
11:36 6 13 mph 1011.7mb 44f 52f
11:30 3 8 mph 1011.6mb 45f 53f
11:24 7 8 mph 1011.6mb 45f 54f
11:18 6 8 mph 1011.6mb 45f 54f
11:12 6 8 mph 1011.7mb 45f 55f
11:06 7 8 mph 1011.7mb 45f 54f
11:00 6 7 mph 1011.7mb 44f 55f
10:54 3 5 mph 1011.8mb 45f 54f
10:48 3 5 mph 1011.9mb 44f 55f
10:42  -  3 mph 1011.9mb 45f 54f
10:36  -  6 mph 1011.9mb 45f 54f
10:30 2 3 mph 1011.8mb 45f 55f
10:24 2 5 mph 1011.8mb 45f 55f
10:18 3 5 mph 1011.8mb 45f 55f
10:12 5 10 mph 1011.9mb 45f 55f
10:06 2 7 mph 1012mb 45f 54f
10:00  -  10 mph 1012mb 45f 54f
9:54 9 11 mph 1012.1mb 45f 54f
9:48 7 10 mph 1012.1mb 45f 55f
9:42 8 11 mph 1012.1mb 45f 54f
9:36 6 10 mph 1012.1mb 45f 54f
9:30 5 7 mph 1012mb 45f 54f
9:24 2 5 mph 1012mb 45f 54f
9:18 1 3 mph 1011.9mb 45f 54f
9:12  -  3 mph 1011.9mb 45f 54f
9:06 3 5 mph 1011.8mb 45f 54f
9:00 2 6 mph 1011.8mb 45f 54f
8:54 2 5 mph 1011.7mb 45f 54f
8:48 2 5 mph 1011.7mb 45f 54f
8:42 2 5 mph 1011.6mb 45f 54f
8:24 7 13 mph 1011.4mb 45f 54f
8:12 13 20 mph 1011.1mb 45f 55f
8:00 13 21 mph 1011.1mb 45f 55f
7:54 13 18 mph 1011.1mb 45f 56f
7:48 14 20 mph 1011.1mb 45f 56f
7:42 10 15 mph 1011.1mb 45f 57f
7:36 8 14 mph 1011.1mb 45f 57f
7:30 9 14 mph 1011.2mb 45f 57f
7:18 10 15 mph 1011.3mb 45f 58f
7:12 9 14 mph 1011.3mb 45f 58f
7:06 7 14 mph 1011.3mb 45f 58f
7:00 10 15 mph 1011.2mb 45f 58f
6:54 11 16 mph 1011.3mb 45f 58f
6:48 7 13 mph 1011.2mb 45f 59f
6:42 6 14 mph 1011.2mb 45f 59f
6:36 10 17 mph 1011.1mb 45f 59f
6:30 11 16 mph 1011.1mb 45f 59f
6:24 10 16 mph 1011mb 45f 59f
6:18 14 18 mph 1010.9mb 45f 59f
6:12 11 16 mph 1010.9mb 45f 60f
6:06 10 18 mph 1010.9mb 45f 60f
6:00 17 22 mph 1010.8mb 45f 59f
5:54 14 21 mph 1010.8mb 46f 60f
5:48 11 23 mph 1010.7mb 46f 60f
5:42 14 20 mph 1010.7mb 46f 60f
5:36 18 28 mph 1010.8mb 46f 60f
5:30 16 23 mph 1010.8mb 46f 60f
5:24 17 23 mph 1010.9mb 46f 60f
5:18 17 26 mph 1010.9mb 46f 60f
5:12 15 23 mph 1010.8mb 46f 60f
5:06 15 23 mph 1010.8mb 46f 60f
5:00 17 25 mph 1010.8mb 46f 60f
4:54 21 28 mph 1010.8mb 45f 60f
4:48 17 25 mph 1010.8mb 46f 60f
4:42 11 23 mph 1010.9mb 46f 61f
4:36 13 18 mph 1010.9mb 46f 61f
4:30 13 23 mph 1010.9mb 46f 61f
4:24 15 25 mph 1010.9mb 46f 60f
4:18 18 29 mph 1010.8mb 45f 60f
4:12 18 28 mph 1010.8mb 46f 60f
4:06 20 29 mph 1010.7mb 46f 60f
4:00 20 28 mph 1010.7mb 46f 60f
3:54 21 29 mph 1010.7mb 46f 60f
3:48 23 32 mph 1010.7mb 46f 60f
3:42 22 30 mph 1010.6mb 46f 60f
3:36 16 31 mph 1010.6mb 46f 61f
3:30 22 33 mph 1010.6mb 46f 60f
3:24 16 29 mph 1010.6mb 46f 61f
3:18 14 29 mph 1010.6mb 46f 61f
3:12 21 29 mph 1010.5mb 47f 60f
3:06 16 28 mph 1010.5mb 46f 61f
3:00 20 28 mph 1010.5mb 47f 61f
2:54 17 25 mph 1010.4mb 46f 62f
2:48 15 25 mph 1010.4mb 46f 62f
2:42 15 20 mph 1010.4mb 46f 62f
2:36 11 21 mph 1010.4mb 46f 63f
2:30 20 28 mph 1010.4mb 46f 62f
2:24 16 28 mph 1010.4mb 46f 63f
2:18 13 22 mph 1010.4mb 46f 63f
2:12 9 14 mph 1010.4mb 46f 64f
2:06 13 22 mph 1010.4mb 46f 63f
2:00 13 24 mph 1010.3mb 46f 63f
1:54 13 22 mph 1010.3mb 46f 64f
1:48 16 24 mph 1010.4mb 46f 63f
1:42 16 22 mph 1010.4mb 46f 63f
1:36 13 16 mph 1010.4mb 45f 63f
1:30 11 18 mph 1010.3mb 45f 64f
1:24 9 16 mph 1010.3mb 45f 65f
1:18 8 17 mph 1010.4mb 45f 64f
1:12 7 20 mph 1010.3mb 46f 64f
1:06 8 15 mph 1010.4mb 46f 64f
1:00 7 15 mph 1010.5mb 46f 64f
12:54 10 15 mph 1010.6mb 46f 63f
12:48 8 16 mph 1010.7mb 46f 63f
12:42 8 16 mph 1010.7mb 46f 63f
12:36 10 16 mph 1010.6mb 46f 62f
12:30 7 18 mph 1010.7mb 46f 62f
12:24 14 20 mph 1010.7mb 46f 62f
12:18 11 18 mph 1010.8mb 46f 62f
12:12 11 22 mph 1010.9mb 46f 62f
12:06 11 15 mph 1010.9mb 46f 62f
12:00 7 18 mph 1011mb 46f 62f
11:54 11 21 mph 1011.2mb 46f 62f
11:48 10 21 mph 1011.2mb 46f 62f
11:42 14 20 mph 1011.2mb 46f 61f
11:36 11 18 mph 1011.2mb 46f 61f
11:30 13 17 mph 1011mb 46f 61f
11:24 10 17 mph 1011.1mb 46f 60f
11:18 9 17 mph 1011.1mb 46f 60f
11:12 9 15 mph 1011.1mb 46f 60f
11:06 8 14 mph 1011.2mb 46f 60f
11:00 7 17 mph 1011.3mb 46f 61f
10:54 6 16 mph 1011.3mb 46f 61f
10:48 9 16 mph 1011.2mb 46f 60f
10:42 11 17 mph 1011.1mb 46f 60f
10:36 11 16 mph 1011.1mb 46f 60f
10:30 10 17 mph 1011.1mb 46f 60f
10:24 10 16 mph 1011.1mb 46f 61f
10:18 10 14 mph 1011.1mb 46f 61f
10:12 10 15 mph 1010.9mb 46f 61f
10:06 10 15 mph 1011.1mb 46f 61f
10:00 9 15 mph 1011.1mb 46f 61f
9:54 9 17 mph 1011mb 46f 60f
9:48 11 17 mph 1011mb 46f 60f
9:42 9 16 mph 1011mb 46f 60f
9:36 11 15 mph 1011.1mb 46f 60f
9:30 13 21 mph 1011mb 46f 60f
9:24 10 18 mph 1011.1mb 46f 59f
9:18 11 17 mph 1011.1mb 46f 59f
9:12 13 20 mph 1011mb 46f 59f
9:06 13 18 mph 1011mb 46f 59f
9:00 14 18 mph 1011mb 46f 58f
8:54 11 17 mph 1011.1mb 46f 58f
8:48 10 17 mph 1011.1mb 46f 57f